sensor_id;sensor_type;location;lat;lon;timestamp;P1;durP1;ratioP1;P2;durP2;ratioP2
77191;SDS011;66172;48.526;8.078;2023-02-20T00:00:29;6.37;;;1.80;;
77191;SDS011;66172;48.526;8.078;2023-02-20T00:02:57;10.43;;;2.00;;
77191;SDS011;66172;48.526;8.078;2023-02-20T00:05:23;6.93;;;1.55;;
77191;SDS011;66172;48.526;8.078;2023-02-20T00:07:49;5.78;;;1.60;;
77191;SDS011;66172;48.526;8.078;2023-02-20T00:10:15;7.80;;;2.10;;
77191;SDS011;66172;48.526;8.078;2023-02-20T00:12:42;6.93;;;2.00;;
77191;SDS011;66172;48.526;8.078;2023-02-20T00:15:08;5.88;;;1.42;;
77191;SDS011;66172;48.526;8.078;2023-02-20T00:17:34;9.40;;;1.80;;
77191;SDS011;66172;48.526;8.078;2023-02-20T00:20:01;7.80;;;1.98;;
77191;SDS011;66172;48.526;8.078;2023-02-20T00:22:27;7.15;;;2.08;;
77191;SDS011;66172;48.526;8.078;2023-02-20T00:24:53;10.03;;;2.10;;
77191;SDS011;66172;48.526;8.078;2023-02-20T00:27:18;6.13;;;1.90;;
77191;SDS011;66172;48.526;8.078;2023-02-20T00:29:45;9.15;;;2.60;;
77191;SDS011;66172;48.526;8.078;2023-02-20T00:32:11;7.90;;;2.40;;
77191;SDS011;66172;48.526;8.078;2023-02-20T00:34:38;10.38;;;3.25;;
77191;SDS011;66172;48.526;8.078;2023-02-20T00:37:04;11.23;;;2.80;;
77191;SDS011;66172;48.526;8.078;2023-02-20T00:39:30;9.77;;;3.30;;
77191;SDS011;66172;48.526;8.078;2023-02-20T00:41:56;10.02;;;3.53;;
77191;SDS011;66172;48.526;8.078;2023-02-20T00:44:23;9.60;;;3.00;;
77191;SDS011;66172;48.526;8.078;2023-02-20T00:46:49;8.60;;;2.88;;
77191;SDS011;66172;48.526;8.078;2023-02-20T00:49:15;7.78;;;2.75;;
77191;SDS011;66172;48.526;8.078;2023-02-20T00:51:41;8.23;;;3.05;;
77191;SDS011;66172;48.526;8.078;2023-02-20T00:54:07;13.17;;;2.90;;
77191;SDS011;66172;48.526;8.078;2023-02-20T00:56:33;9.65;;;2.40;;
77191;SDS011;66172;48.526;8.078;2023-02-20T00:58:59;9.32;;;2.90;;
77191;SDS011;66172;48.526;8.078;2023-02-20T01:01:25;9.43;;;2.70;;
77191;SDS011;66172;48.526;8.078;2023-02-20T01:03:51;8.43;;;2.70;;
77191;SDS011;66172;48.526;8.078;2023-02-20T01:06:17;9.65;;;3.15;;
77191;SDS011;66172;48.526;8.078;2023-02-20T01:08:43;8.48;;;2.67;;
77191;SDS011;66172;48.526;8.078;2023-02-20T01:11:09;8.20;;;2.50;;
77191;SDS011;66172;48.526;8.078;2023-02-20T01:13:35;12.02;;;2.50;;
77191;SDS011;66172;48.526;8.078;2023-02-20T01:16:01;9.93;;;2.63;;
77191;SDS011;66172;48.526;8.078;2023-02-20T01:18:27;8.15;;;2.25;;
77191;SDS011;66172;48.526;8.078;2023-02-20T01:20:53;7.37;;;2.03;;
77191;SDS011;66172;48.526;8.078;2023-02-20T01:23:18;7.53;;;2.20;;
77191;SDS011;66172;48.526;8.078;2023-02-20T01:25:44;10.57;;;2.33;;
77191;SDS011;66172;48.526;8.078;2023-02-20T01:28:10;6.20;;;1.70;;
77191;SDS011;66172;48.526;8.078;2023-02-20T01:30:36;8.18;;;2.10;;
77191;SDS011;66172;48.526;8.078;2023-02-20T01:33:02;7.13;;;1.70;;
77191;SDS011;66172;48.526;8.078;2023-02-20T01:35:28;6.75;;;2.00;;
77191;SDS011;66172;48.526;8.078;2023-02-20T01:37:58;7.23;;;2.20;;
77191;SDS011;66172;48.526;8.078;2023-02-20T01:40:25;6.32;;;1.33;;
77191;SDS011;66172;48.526;8.078;2023-02-20T01:42:52;8.10;;;1.85;;
77191;SDS011;66172;48.526;8.078;2023-02-20T01:47:47;6.47;;;1.65;;
77191;SDS011;66172;48.526;8.078;2023-02-20T01:50:19;7.47;;;1.70;;
77191;SDS011;66172;48.526;8.078;2023-02-20T01:52:49;10.10;;;1.73;;
77191;SDS011;66172;48.526;8.078;2023-02-20T01:55:24;5.72;;;1.83;;
77191;SDS011;66172;48.526;8.078;2023-02-20T01:57:55;7.55;;;1.80;;
77191;SDS011;66172;48.526;8.078;2023-02-20T02:00:25;7.97;;;1.90;;
77191;SDS011;66172;48.526;8.078;2023-02-20T02:05:21;6.47;;;1.70;;
77191;SDS011;66172;48.526;8.078;2023-02-20T02:07:48;8.40;;;1.90;;
77191;SDS011;66172;48.526;8.078;2023-02-20T02:10:17;10.88;;;2.05;;
77191;SDS011;66172;48.526;8.078;2023-02-20T02:12:48;7.93;;;2.22;;
77191;SDS011;66172;48.526;8.078;2023-02-20T02:15:18;10.07;;;1.90;;
77191;SDS011;66172;48.526;8.078;2023-02-20T02:17:52;9.25;;;2.20;;
77191;SDS011;66172;48.526;8.078;2023-02-20T02:23:40;9.18;;;2.40;;
77191;SDS011;66172;48.526;8.078;2023-02-20T02:26:43;7.93;;;1.88;;
77191;SDS011;66172;48.526;8.078;2023-02-20T02:29:43;7.63;;;2.20;;
77191;SDS011;66172;48.526;8.078;2023-02-20T02:41:06;7.10;;;2.00;;
77191;SDS011;66172;48.526;8.078;2023-02-20T02:47:02;7.18;;;1.80;;
77191;SDS011;66172;48.526;8.078;2023-02-20T02:49:37;11.00;;;1.90;;
77191;SDS011;66172;48.526;8.078;2023-02-20T02:52:11;6.60;;;2.08;;
77191;SDS011;66172;48.526;8.078;2023-02-20T02:54:37;6.13;;;1.63;;
77191;SDS011;66172;48.526;8.078;2023-02-20T03:08:27;8.38;;;1.80;;
77191;SDS011;66172;48.526;8.078;2023-02-20T03:10:59;8.10;;;2.03;;
77191;SDS011;66172;48.526;8.078;2023-02-20T03:13:33;7.97;;;1.80;;
77191;SDS011;66172;48.526;8.078;2023-02-20T03:16:24;8.10;;;2.10;;
77191;SDS011;66172;48.526;8.078;2023-02-20T03:18:57;9.37;;;2.07;;
77191;SDS011;66172;48.526;8.078;2023-02-20T03:21:27;8.73;;;1.90;;
77191;SDS011;66172;48.526;8.078;2023-02-20T03:23:57;7.50;;;2.60;;
77191;SDS011;66172;48.526;8.078;2023-02-20T03:26:27;7.90;;;1.85;;
77191;SDS011;66172;48.526;8.078;2023-02-20T03:28:59;7.65;;;1.90;;
77191;SDS011;66172;48.526;8.078;2023-02-20T03:31:39;9.37;;;1.93;;
77191;SDS011;66172;48.526;8.078;2023-02-20T03:34:09;7.63;;;1.90;;
77191;SDS011;66172;48.526;8.078;2023-02-20T03:37:01;7.85;;;2.15;;
77191;SDS011;66172;48.526;8.078;2023-02-20T03:39:51;8.70;;;2.00;;
77191;SDS011;66172;48.526;8.078;2023-02-20T03:42:40;6.50;;;2.20;;
77191;SDS011;66172;48.526;8.078;2023-02-20T03:45:30;8.70;;;2.23;;
77191;SDS011;66172;48.526;8.078;2023-02-20T03:48:01;7.68;;;2.05;;
77191;SDS011;66172;48.526;8.078;2023-02-20T03:50:33;7.57;;;2.05;;
77191;SDS011;66172;48.526;8.078;2023-02-20T03:53:17;7.88;;;1.92;;
77191;SDS011;66172;48.526;8.078;2023-02-20T03:55:45;6.30;;;1.73;;
77191;SDS011;66172;48.526;8.078;2023-02-20T03:58:14;9.70;;;1.97;;
77191;SDS011;66172;48.526;8.078;2023-02-20T04:00:45;7.13;;;2.53;;
77191;SDS011;66172;48.526;8.078;2023-02-20T04:03:15;6.15;;;2.08;;
77191;SDS011;66172;48.526;8.078;2023-02-20T04:05:45;11.43;;;2.28;;
77191;SDS011;66172;48.526;8.078;2023-02-20T04:10:52;7.97;;;2.20;;
77191;SDS011;66172;48.526;8.078;2023-02-20T04:13:23;8.25;;;1.83;;
77191;SDS011;66172;48.526;8.078;2023-02-20T04:15:50;8.35;;;2.20;;
77191;SDS011;66172;48.526;8.078;2023-02-20T04:18:17;9.73;;;2.13;;
77191;SDS011;66172;48.526;8.078;2023-02-20T04:20:45;6.65;;;2.40;;
77191;SDS011;66172;48.526;8.078;2023-02-20T04:23:15;8.53;;;2.87;;
77191;SDS011;66172;48.526;8.078;2023-02-20T04:25:44;10.30;;;2.40;;
77191;SDS011;66172;48.526;8.078;2023-02-20T04:28:15;8.50;;;2.10;;
77191;SDS011;66172;48.526;8.078;2023-02-20T04:30:41;8.30;;;1.98;;
77191;SDS011;66172;48.526;8.078;2023-02-20T04:33:10;7.75;;;2.08;;
77191;SDS011;66172;48.526;8.078;2023-02-20T04:35:38;10.00;;;2.33;;
77191;SDS011;66172;48.526;8.078;2023-02-20T04:38:04;9.70;;;2.13;;
77191;SDS011;66172;48.526;8.078;2023-02-20T04:40:31;8.65;;;2.20;;
77191;SDS011;66172;48.526;8.078;2023-02-20T04:42:57;11.07;;;2.15;;
77191;SDS011;66172;48.526;8.078;2023-02-20T04:45:23;10.73;;;2.40;;
77191;SDS011;66172;48.526;8.078;2023-02-20T04:47:49;9.87;;;2.20;;
77191;SDS011;66172;48.526;8.078;2023-02-20T04:50:20;10.98;;;2.55;;
77191;SDS011;66172;48.526;8.078;2023-02-20T04:52:53;7.78;;;1.95;;
77191;SDS011;66172;48.526;8.078;2023-02-20T04:55:20;9.07;;;2.10;;
77191;SDS011;66172;48.526;8.078;2023-02-20T04:57:46;7.35;;;2.30;;
77191;SDS011;66172;48.526;8.078;2023-02-20T05:00:13;8.67;;;2.20;;
77191;SDS011;66172;48.526;8.078;2023-02-20T05:02:41;8.98;;;2.50;;
77191;SDS011;66172;48.526;8.078;2023-02-20T05:05:13;9.82;;;2.35;;
77191;SDS011;66172;48.526;8.078;2023-02-20T05:07:45;11.30;;;2.40;;
77191;SDS011;66172;48.526;8.078;2023-02-20T05:10:12;8.07;;;2.25;;
77191;SDS011;66172;48.526;8.078;2023-02-20T05:12:42;7.87;;;2.10;;
77191;SDS011;66172;48.526;8.078;2023-02-20T05:15:08;8.15;;;2.42;;
77191;SDS011;66172;48.526;8.078;2023-02-20T05:17:34;8.73;;;2.33;;
77191;SDS011;66172;48.526;8.078;2023-02-20T05:20:00;8.63;;;2.28;;
77191;SDS011;66172;48.526;8.078;2023-02-20T05:22:26;9.63;;;1.90;;
77191;SDS011;66172;48.526;8.078;2023-02-20T05:24:51;11.10;;;2.33;;
77191;SDS011;66172;48.526;8.078;2023-02-20T05:27:19;7.05;;;2.28;;
77191;SDS011;66172;48.526;8.078;2023-02-20T05:29:48;11.13;;;2.90;;
77191;SDS011;66172;48.526;8.078;2023-02-20T05:32:15;21.57;;;6.33;;
77191;SDS011;66172;48.526;8.078;2023-02-20T05:34:42;13.98;;;4.50;;
77191;SDS011;66172;48.526;8.078;2023-02-20T05:37:09;11.52;;;3.20;;
77191;SDS011;66172;48.526;8.078;2023-02-20T05:39:37;7.82;;;2.10;;
77191;SDS011;66172;48.526;8.078;2023-02-20T05:42:03;9.70;;;2.40;;
77191;SDS011;66172;48.526;8.078;2023-02-20T05:47:08;8.43;;;2.92;;
77191;SDS011;66172;48.526;8.078;2023-02-20T05:49:34;12.95;;;3.10;;
77191;SDS011;66172;48.526;8.078;2023-02-20T05:52:01;11.45;;;3.08;;
77191;SDS011;66172;48.526;8.078;2023-02-20T05:54:34;8.38;;;2.60;;
77191;SDS011;66172;48.526;8.078;2023-02-20T05:57:00;11.13;;;3.03;;
77191;SDS011;66172;48.526;8.078;2023-02-20T05:59:26;12.90;;;3.42;;
77191;SDS011;66172;48.526;8.078;2023-02-20T06:01:55;9.25;;;3.20;;
77191;SDS011;66172;48.526;8.078;2023-02-20T06:04:22;11.48;;;3.15;;
77191;SDS011;66172;48.526;8.078;2023-02-20T06:06:48;9.50;;;3.10;;
77191;SDS011;66172;48.526;8.078;2023-02-20T06:09:14;8.13;;;2.88;;
77191;SDS011;66172;48.526;8.078;2023-02-20T06:11:41;13.95;;;3.83;;
77191;SDS011;66172;48.526;8.078;2023-02-20T06:14:14;11.30;;;3.10;;
77191;SDS011;66172;48.526;8.078;2023-02-20T06:16:40;9.38;;;3.28;;
77191;SDS011;66172;48.526;8.078;2023-02-20T06:19:06;10.77;;;3.33;;
77191;SDS011;66172;48.526;8.078;2023-02-20T06:21:32;11.07;;;3.20;;
77191;SDS011;66172;48.526;8.078;2023-02-20T06:24:00;9.15;;;3.40;;
77191;SDS011;66172;48.526;8.078;2023-02-20T06:26:26;11.05;;;3.80;;
77191;SDS011;66172;48.526;8.078;2023-02-20T06:28:52;9.63;;;3.07;;
77191;SDS011;66172;48.526;8.078;2023-02-20T06:31:23;10.23;;;4.43;;
77191;SDS011;66172;48.526;8.078;2023-02-20T06:33:50;10.07;;;3.53;;
77191;SDS011;66172;48.526;8.078;2023-02-20T06:36:18;13.77;;;6.00;;
77191;SDS011;66172;48.526;8.078;2023-02-20T06:38:45;10.30;;;4.60;;
77191;SDS011;66172;48.526;8.078;2023-02-20T06:41:11;10.60;;;3.60;;
77191;SDS011;66172;48.526;8.078;2023-02-20T06:43:37;10.32;;;3.70;;
77191;SDS011;66172;48.526;8.078;2023-02-20T06:46:03;9.32;;;2.97;;
77191;SDS011;66172;48.526;8.078;2023-02-20T06:48:29;13.90;;;3.80;;
77191;SDS011;66172;48.526;8.078;2023-02-20T06:50:55;12.18;;;3.85;;
77191;SDS011;66172;48.526;8.078;2023-02-20T06:53:21;14.85;;;4.10;;
77191;SDS011;66172;48.526;8.078;2023-02-20T06:55:47;12.48;;;4.00;;
77191;SDS011;66172;48.526;8.078;2023-02-20T06:58:13;10.67;;;3.83;;
77191;SDS011;66172;48.526;8.078;2023-02-20T07:00:39;9.38;;;3.45;;
77191;SDS011;66172;48.526;8.078;2023-02-20T07:03:05;14.13;;;3.63;;
77191;SDS011;66172;48.526;8.078;2023-02-20T07:05:31;7.97;;;3.17;;
77191;SDS011;66172;48.526;8.078;2023-02-20T07:07:57;13.52;;;3.85;;
77191;SDS011;66172;48.526;8.078;2023-02-20T07:10:22;12.50;;;3.28;;
77191;SDS011;66172;48.526;8.078;2023-02-20T07:12:48;10.97;;;3.00;;
77191;SDS011;66172;48.526;8.078;2023-02-20T07:15:14;8.20;;;2.73;;
77191;SDS011;66172;48.526;8.078;2023-02-20T07:17:40;9.30;;;2.70;;
77191;SDS011;66172;48.526;8.078;2023-02-20T07:20:06;8.05;;;2.17;;
77191;SDS011;66172;48.526;8.078;2023-02-20T07:22:32;6.67;;;2.70;;
77191;SDS011;66172;48.526;8.078;2023-02-20T07:24:58;5.53;;;2.03;;
77191;SDS011;66172;48.526;8.078;2023-02-20T07:27:24;9.45;;;2.60;;
77191;SDS011;66172;48.526;8.078;2023-02-20T07:29:50;7.57;;;3.00;;
77191;SDS011;66172;48.526;8.078;2023-02-20T07:32:16;8.33;;;2.80;;
77191;SDS011;66172;48.526;8.078;2023-02-20T07:34:47;6.65;;;2.50;;
77191;SDS011;66172;48.526;8.078;2023-02-20T07:37:14;9.02;;;2.67;;
77191;SDS011;66172;48.526;8.078;2023-02-20T07:39:40;8.68;;;2.67;;
77191;SDS011;66172;48.526;8.078;2023-02-20T07:42:06;12.13;;;4.00;;
77191;SDS011;66172;48.526;8.078;2023-02-20T07:44:33;13.43;;;3.70;;
77191;SDS011;66172;48.526;8.078;2023-02-20T07:46:58;9.77;;;3.42;;
77191;SDS011;66172;48.526;8.078;2023-02-20T07:49:24;11.80;;;3.67;;
77191;SDS011;66172;48.526;8.078;2023-02-20T07:51:50;10.63;;;3.33;;
77191;SDS011;66172;48.526;8.078;2023-02-20T07:54:16;12.25;;;3.08;;
77191;SDS011;66172;48.526;8.078;2023-02-20T07:56:42;7.13;;;2.90;;
77191;SDS011;66172;48.526;8.078;2023-02-20T07:59:08;9.80;;;3.58;;
77191;SDS011;66172;48.526;8.078;2023-02-20T08:01:34;11.53;;;2.67;;
77191;SDS011;66172;48.526;8.078;2023-02-20T08:04:00;11.10;;;3.13;;
77191;SDS011;66172;48.526;8.078;2023-02-20T08:06:26;7.65;;;2.97;;
77191;SDS011;66172;48.526;8.078;2023-02-20T08:08:53;11.07;;;3.03;;
77191;SDS011;66172;48.526;8.078;2023-02-20T08:11:20;11.33;;;2.43;;
77191;SDS011;66172;48.526;8.078;2023-02-20T08:13:48;9.35;;;2.95;;
77191;SDS011;66172;48.526;8.078;2023-02-20T08:16:14;11.63;;;2.95;;
77191;SDS011;66172;48.526;8.078;2023-02-20T08:18:40;7.05;;;2.30;;
77191;SDS011;66172;48.526;8.078;2023-02-20T08:21:06;7.80;;;2.23;;
77191;SDS011;66172;48.526;8.078;2023-02-20T08:23:32;9.02;;;2.50;;
77191;SDS011;66172;48.526;8.078;2023-02-20T08:25:57;7.30;;;2.20;;
77191;SDS011;66172;48.526;8.078;2023-02-20T08:28:24;9.02;;;2.30;;
77191;SDS011;66172;48.526;8.078;2023-02-20T08:30:50;7.73;;;2.37;;
77191;SDS011;66172;48.526;8.078;2023-02-20T08:33:16;7.40;;;1.95;;
77191;SDS011;66172;48.526;8.078;2023-02-20T08:35:43;7.05;;;2.30;;
77191;SDS011;66172;48.526;8.078;2023-02-20T08:40:55;8.07;;;2.30;;
77191;SDS011;66172;48.526;8.078;2023-02-20T08:43:21;8.18;;;3.08;;
77191;SDS011;66172;48.526;8.078;2023-02-20T08:45:47;6.65;;;1.90;;
77191;SDS011;66172;48.526;8.078;2023-02-20T08:48:13;6.18;;;2.00;;
77191;SDS011;66172;48.526;8.078;2023-02-20T08:50:39;8.63;;;2.00;;
77191;SDS011;66172;48.526;8.078;2023-02-20T08:53:05;5.70;;;1.98;;
77191;SDS011;66172;48.526;8.078;2023-02-20T08:55:31;6.07;;;1.70;;
77191;SDS011;66172;48.526;8.078;2023-02-20T08:57:57;6.68;;;1.92;;
77191;SDS011;66172;48.526;8.078;2023-02-20T09:00:23;6.10;;;1.80;;
77191;SDS011;66172;48.526;8.078;2023-02-20T09:02:49;9.70;;;2.22;;
77191;SDS011;66172;48.526;8.078;2023-02-20T09:05:15;5.68;;;1.90;;
77191;SDS011;66172;48.526;8.078;2023-02-20T09:07:41;8.23;;;2.00;;
77191;SDS011;66172;48.526;8.078;2023-02-20T09:10:07;8.43;;;2.27;;
77191;SDS011;66172;48.526;8.078;2023-02-20T09:12:34;8.52;;;1.85;;
77191;SDS011;66172;48.526;8.078;2023-02-20T09:15:00;6.88;;;1.60;;
77191;SDS011;66172;48.526;8.078;2023-02-20T09:17:26;6.03;;;1.60;;
77191;SDS011;66172;48.526;8.078;2023-02-20T09:19:52;6.87;;;2.17;;
77191;SDS011;66172;48.526;8.078;2023-02-20T09:22:24;8.60;;;1.83;;
77191;SDS011;66172;48.526;8.078;2023-02-20T09:24:51;8.45;;;2.10;;
77191;SDS011;66172;48.526;8.078;2023-02-20T09:27:19;7.40;;;2.20;;
77191;SDS011;66172;48.526;8.078;2023-02-20T09:29:45;7.13;;;1.80;;
77191;SDS011;66172;48.526;8.078;2023-02-20T09:32:12;7.85;;;2.40;;
77191;SDS011;66172;48.526;8.078;2023-02-20T09:34:38;9.10;;;2.92;;
77191;SDS011;66172;48.526;8.078;2023-02-20T09:37:04;11.90;;;4.30;;
77191;SDS011;66172;48.526;8.078;2023-02-20T09:39:30;11.43;;;3.78;;
77191;SDS011;66172;48.526;8.078;2023-02-20T09:44:31;7.80;;;2.15;;
77191;SDS011;66172;48.526;8.078;2023-02-20T09:47:07;9.73;;;2.85;;
77191;SDS011;66172;48.526;8.078;2023-02-20T09:49:46;8.27;;;2.70;;
77191;SDS011;66172;48.526;8.078;2023-02-20T09:52:12;6.87;;;2.37;;
77191;SDS011;66172;48.526;8.078;2023-02-20T09:54:42;8.25;;;2.40;;
77191;SDS011;66172;48.526;8.078;2023-02-20T09:57:13;7.57;;;2.38;;
77191;SDS011;66172;48.526;8.078;2023-02-20T09:59:50;5.72;;;1.88;;
77191;SDS011;66172;48.526;8.078;2023-02-20T10:05:04;7.33;;;1.80;;
77191;SDS011;66172;48.526;8.078;2023-02-20T10:07:47;7.55;;;1.77;;
77191;SDS011;66172;48.526;8.078;2023-02-20T10:10:25;7.28;;;2.15;;
77191;SDS011;66172;48.526;8.078;2023-02-20T10:15:36;7.80;;;2.40;;
77191;SDS011;66172;48.526;8.078;2023-02-20T10:21:02;7.88;;;2.58;;
77191;SDS011;66172;48.526;8.078;2023-02-20T10:23:49;6.40;;;2.10;;
77191;SDS011;66172;48.526;8.078;2023-02-20T10:26:19;6.10;;;1.90;;
77191;SDS011;66172;48.526;8.078;2023-02-20T10:28:48;6.03;;;1.92;;
77191;SDS011;66172;48.526;8.078;2023-02-20T10:34:07;6.15;;;2.10;;
77191;SDS011;66172;48.526;8.078;2023-02-20T10:36:38;6.22;;;1.83;;
77191;SDS011;66172;48.526;8.078;2023-02-20T10:39:09;5.70;;;2.00;;
77191;SDS011;66172;48.526;8.078;2023-02-20T10:44:38;7.30;;;2.40;;
77191;SDS011;66172;48.526;8.078;2023-02-20T10:47:15;6.00;;;2.10;;
77191;SDS011;66172;48.526;8.078;2023-02-20T10:50:22;6.65;;;2.10;;
77191;SDS011;66172;48.526;8.078;2023-02-20T10:52:46;7.85;;;2.17;;
77191;SDS011;66172;48.526;8.078;2023-02-20T10:55:25;6.13;;;2.00;;
77191;SDS011;66172;48.526;8.078;2023-02-20T10:58:02;6.27;;;2.50;;
77191;SDS011;66172;48.526;8.078;2023-02-20T11:00:35;5.30;;;1.92;;
77191;SDS011;66172;48.526;8.078;2023-02-20T11:03:13;6.75;;;2.30;;
77191;SDS011;66172;48.526;8.078;2023-02-20T11:05:44;7.38;;;2.10;;
77191;SDS011;66172;48.526;8.078;2023-02-20T11:08:14;8.48;;;2.60;;
77191;SDS011;66172;48.526;8.078;2023-02-20T11:10:46;8.00;;;2.60;;
77191;SDS011;66172;48.526;8.078;2023-02-20T11:13:14;7.15;;;2.35;;
77191;SDS011;66172;48.526;8.078;2023-02-20T11:15:43;6.95;;;2.00;;
77191;SDS011;66172;48.526;8.078;2023-02-20T11:18:15;7.70;;;2.40;;
77191;SDS011;66172;48.526;8.078;2023-02-20T11:20:47;6.53;;;2.22;;
77191;SDS011;66172;48.526;8.078;2023-02-20T11:23:32;5.83;;;2.07;;
77191;SDS011;66172;48.526;8.078;2023-02-20T11:26:13;7.47;;;1.90;;
77191;SDS011;66172;48.526;8.078;2023-02-20T11:28:58;7.13;;;2.22;;
77191;SDS011;66172;48.526;8.078;2023-02-20T11:31:28;6.25;;;1.75;;
77191;SDS011;66172;48.526;8.078;2023-02-20T11:33:54;6.15;;;2.00;;
77191;SDS011;66172;48.526;8.078;2023-02-20T11:36:25;5.87;;;1.80;;
77191;SDS011;66172;48.526;8.078;2023-02-20T11:38:56;5.35;;;1.65;;
77191;SDS011;66172;48.526;8.078;2023-02-20T11:46:39;5.35;;;2.00;;
77191;SDS011;66172;48.526;8.078;2023-02-20T11:49:09;6.70;;;1.80;;
77191;SDS011;66172;48.526;8.078;2023-02-20T11:51:46;4.95;;;1.50;;
77191;SDS011;66172;48.526;8.078;2023-02-20T11:59:36;6.25;;;1.77;;
77191;SDS011;66172;48.526;8.078;2023-02-20T12:04:45;5.53;;;1.60;;
77191;SDS011;66172;48.526;8.078;2023-02-20T12:07:27;4.55;;;1.40;;
77191;SDS011;66172;48.526;8.078;2023-02-20T12:12:33;5.07;;;1.60;;
77191;SDS011;66172;48.526;8.078;2023-02-20T12:14:58;5.90;;;1.40;;
77191;SDS011;66172;48.526;8.078;2023-02-20T12:17:33;5.75;;;1.55;;
77191;SDS011;66172;48.526;8.078;2023-02-20T12:20:25;5.15;;;1.50;;
77191;SDS011;66172;48.526;8.078;2023-02-20T12:23:03;5.88;;;1.73;;
77191;SDS011;66172;48.526;8.078;2023-02-20T12:34:17;5.82;;;1.50;;
77191;SDS011;66172;48.526;8.078;2023-02-20T12:42:31;6.13;;;1.70;;
77191;SDS011;66172;48.526;8.078;2023-02-20T12:47:41;5.15;;;1.70;;
77191;SDS011;66172;48.526;8.078;2023-02-20T12:56:18;5.43;;;1.63;;
77191;SDS011;66172;48.526;8.078;2023-02-20T12:59:12;5.30;;;1.55;;
77191;SDS011;66172;48.526;8.078;2023-02-20T13:01:49;4.95;;;1.15;;
77191;SDS011;66172;48.526;8.078;2023-02-20T13:07:05;5.97;;;1.50;;
77191;SDS011;66172;48.526;8.078;2023-02-20T13:09:43;5.63;;;1.52;;
77191;SDS011;66172;48.526;8.078;2023-02-20T13:12:21;5.93;;;1.63;;
77191;SDS011;66172;48.526;8.078;2023-02-20T13:14:51;4.68;;;1.35;;
77191;SDS011;66172;48.526;8.078;2023-02-20T13:17:46;5.55;;;1.70;;
77191;SDS011;66172;48.526;8.078;2023-02-20T13:20:25;5.93;;;1.40;;
77191;SDS011;66172;48.526;8.078;2023-02-20T13:23:02;7.43;;;1.70;;
77191;SDS011;66172;48.526;8.078;2023-02-20T13:25:44;5.90;;;1.88;;
77191;SDS011;66172;48.526;8.078;2023-02-20T13:28:23;5.43;;;1.30;;
77191;SDS011;66172;48.526;8.078;2023-02-20T13:31:39;7.20;;;1.40;;
77191;SDS011;66172;48.526;8.078;2023-02-20T13:33:51;4.83;;;1.23;;
77191;SDS011;66172;48.526;8.078;2023-02-20T13:36:37;4.45;;;1.33;;
77191;SDS011;66172;48.526;8.078;2023-02-20T14:00:19;7.23;;;1.53;;
77191;SDS011;66172;48.526;8.078;2023-02-20T14:02:51;6.45;;;1.40;;
77191;SDS011;66172;48.526;8.078;2023-02-20T14:05:19;5.20;;;1.30;;
77191;SDS011;66172;48.526;8.078;2023-02-20T14:07:48;5.70;;;1.38;;
77191;SDS011;66172;48.526;8.078;2023-02-20T14:10:16;5.40;;;1.30;;
77191;SDS011;66172;48.526;8.078;2023-02-20T14:15:26;3.88;;;1.27;;
77191;SDS011;66172;48.526;8.078;2023-02-20T14:17:54;6.13;;;1.27;;
77191;SDS011;66172;48.526;8.078;2023-02-20T14:20:23;5.93;;;1.00;;
77191;SDS011;66172;48.526;8.078;2023-02-20T14:23:04;4.47;;;1.00;;
77191;SDS011;66172;48.526;8.078;2023-02-20T14:25:51;3.73;;;0.90;;
77191;SDS011;66172;48.526;8.078;2023-02-20T14:28:29;5.25;;;1.13;;
77191;SDS011;66172;48.526;8.078;2023-02-20T14:31:16;6.70;;;1.40;;
77191;SDS011;66172;48.526;8.078;2023-02-20T14:33:44;5.95;;;1.00;;
77191;SDS011;66172;48.526;8.078;2023-02-20T14:41:56;4.65;;;0.90;;
77191;SDS011;66172;48.526;8.078;2023-02-20T14:44:24;5.10;;;1.10;;
77191;SDS011;66172;48.526;8.078;2023-02-20T14:46:52;5.55;;;1.13;;
77191;SDS011;66172;48.526;8.078;2023-02-20T14:49:22;6.15;;;1.05;;
77191;SDS011;66172;48.526;8.078;2023-02-20T14:54:34;5.45;;;0.95;;
77191;SDS011;66172;48.526;8.078;2023-02-20T14:57:01;4.03;;;0.75;;
77191;SDS011;66172;48.526;8.078;2023-02-20T15:02:47;3.80;;;0.95;;
77191;SDS011;66172;48.526;8.078;2023-02-20T15:05:19;3.93;;;1.00;;
77191;SDS011;66172;48.526;8.078;2023-02-20T15:07:51;4.22;;;1.30;;
77191;SDS011;66172;48.526;8.078;2023-02-20T15:13:09;5.03;;;1.17;;
77191;SDS011;66172;48.526;8.078;2023-02-20T15:15:38;6.05;;;1.05;;
77191;SDS011;66172;48.526;8.078;2023-02-20T15:18:10;5.50;;;1.00;;
77191;SDS011;66172;48.526;8.078;2023-02-20T15:20:40;5.95;;;1.08;;
77191;SDS011;66172;48.526;8.078;2023-02-20T15:23:50;9.90;;;1.42;;
77191;SDS011;66172;48.526;8.078;2023-02-20T15:31:53;5.57;;;1.90;;
77191;SDS011;66172;48.526;8.078;2023-02-20T15:34:21;4.60;;;1.27;;
77191;SDS011;66172;48.526;8.078;2023-02-20T15:36:49;4.88;;;1.60;;
77191;SDS011;66172;48.526;8.078;2023-02-20T15:39:16;5.57;;;1.30;;
77191;SDS011;66172;48.526;8.078;2023-02-20T15:41:43;4.68;;;1.42;;
77191;SDS011;66172;48.526;8.078;2023-02-20T15:44:09;5.33;;;1.30;;
77191;SDS011;66172;48.526;8.078;2023-02-20T15:46:35;4.55;;;1.42;;
77191;SDS011;66172;48.526;8.078;2023-02-20T15:49:02;6.18;;;2.30;;
77191;SDS011;66172;48.526;8.078;2023-02-20T15:51:29;6.50;;;2.70;;
77191;SDS011;66172;48.526;8.078;2023-02-20T15:53:58;6.23;;;2.00;;
77191;SDS011;66172;48.526;8.078;2023-02-20T15:56:28;6.47;;;1.67;;
77191;SDS011;66172;48.526;8.078;2023-02-20T15:59:01;6.03;;;1.50;;
77191;SDS011;66172;48.526;8.078;2023-02-20T16:01:30;5.80;;;1.55;;
77191;SDS011;66172;48.526;8.078;2023-02-20T16:03:56;7.28;;;2.40;;
77191;SDS011;66172;48.526;8.078;2023-02-20T16:06:22;5.93;;;2.23;;
77191;SDS011;66172;48.526;8.078;2023-02-20T16:08:49;5.45;;;1.23;;
77191;SDS011;66172;48.526;8.078;2023-02-20T16:11:16;6.60;;;1.70;;
77191;SDS011;66172;48.526;8.078;2023-02-20T16:13:44;4.78;;;1.30;;
77191;SDS011;66172;48.526;8.078;2023-02-20T16:18:44;6.43;;;1.30;;
77191;SDS011;66172;48.526;8.078;2023-02-20T16:21:12;6.38;;;1.50;;
77191;SDS011;66172;48.526;8.078;2023-02-20T16:23:40;4.93;;;1.60;;
77191;SDS011;66172;48.526;8.078;2023-02-20T16:26:07;7.60;;;2.25;;
77191;SDS011;66172;48.526;8.078;2023-02-20T16:28:33;5.33;;;1.80;;
77191;SDS011;66172;48.526;8.078;2023-02-20T16:30:59;10.88;;;3.60;;
77191;SDS011;66172;48.526;8.078;2023-02-20T16:33:25;20.73;;;10.55;;
77191;SDS011;66172;48.526;8.078;2023-02-20T16:35:51;10.52;;;4.72;;
77191;SDS011;66172;48.526;8.078;2023-02-20T16:38:18;9.70;;;3.70;;
77191;SDS011;66172;48.526;8.078;2023-02-20T16:40:44;10.50;;;3.90;;
77191;SDS011;66172;48.526;8.078;2023-02-20T16:43:11;8.43;;;3.33;;
77191;SDS011;66172;48.526;8.078;2023-02-20T16:45:38;8.27;;;3.80;;
77191;SDS011;66172;48.526;8.078;2023-02-20T16:48:15;6.50;;;2.20;;
77191;SDS011;66172;48.526;8.078;2023-02-20T16:50:42;7.68;;;2.30;;
77191;SDS011;66172;48.526;8.078;2023-02-20T16:53:09;8.17;;;2.10;;
77191;SDS011;66172;48.526;8.078;2023-02-20T16:55:37;5.85;;;2.20;;
77191;SDS011;66172;48.526;8.078;2023-02-20T16:58:06;7.80;;;2.50;;
77191;SDS011;66172;48.526;8.078;2023-02-20T17:00:34;8.63;;;2.30;;
77191;SDS011;66172;48.526;8.078;2023-02-20T17:03:01;7.57;;;2.70;;
77191;SDS011;66172;48.526;8.078;2023-02-20T17:05:31;6.87;;;2.20;;
77191;SDS011;66172;48.526;8.078;2023-02-20T17:07:58;7.28;;;2.53;;
77191;SDS011;66172;48.526;8.078;2023-02-20T17:10:24;9.45;;;2.72;;
77191;SDS011;66172;48.526;8.078;2023-02-20T17:12:51;7.25;;;2.42;;
77191;SDS011;66172;48.526;8.078;2023-02-20T17:15:19;6.70;;;2.20;;
77191;SDS011;66172;48.526;8.078;2023-02-20T17:17:46;7.67;;;2.07;;
77191;SDS011;66172;48.526;8.078;2023-02-20T17:20:15;8.43;;;2.28;;
77191;SDS011;66172;48.526;8.078;2023-02-20T17:22:43;7.63;;;2.67;;
77191;SDS011;66172;48.526;8.078;2023-02-20T17:25:14;8.38;;;2.70;;